Time;durP1;ratioP1;P1;durP2;ratioP2;P2;SDS_P1;SDS_P2;PMS_P1;PMS_P2;Temp;Humidity;BMP_temperature;BMP_pressure;BME280_temperature;BME280_humidity;BME280_pressure;Samples;Min_cycle;Max_cycle;Signal;HPM_P1;HPM_P2
2022/04/08 00:00:23;;;;;;;3.08;1.33;;;6.80;99.90;;;;;;5049186;28;20038;-89
2022/04/08 00:02:50;;;;;;;2.50;1.17;;;6.70;99.90;;;;;;5033529;28;20022;-89
2022/04/08 00:05:15;;;;;;;8.60;1.40;;;6.60;99.90;;;;;;5034499;28;20030;-89
2022/04/08 00:07:42;;;;;;;4.25;1.88;;;6.60;99.90;;;;;;5037325;28;20025;-90
2022/04/08 00:10:08;;;;;;;5.97;2.40;;;6.50;99.90;;;;;;5051614;28;20060;-88
2022/04/08 00:12:34;;;;;;;1.83;1.30;;;6.40;99.90;;;;;;5051424;28;20013;-89
2022/04/08 00:14:59;;;;;;;5.05;1.65;;;6.40;99.90;;;;;;5045713;28;20036;-87
2022/04/08 00:17:26;;;;;;;1.95;1.17;;;6.50;99.90;;;;;;5051171;28;20117;-89
2022/04/08 00:19:51;;;;;;;4.00;1.83;;;6.40;99.90;;;;;;5038599;28;20068;-90
2022/04/08 00:22:22;;;;;;;4.95;1.40;;;6.40;99.90;;;;;;5027093;28;20473;-90
2022/04/08 00:24:48;;;;;;;9.00;1.85;;;6.40;99.90;;;;;;5011982;28;20037;-89
2022/04/08 00:27:13;;;;;;;6.85;2.08;;;6.40;99.90;;;;;;5030207;28;20025;-90
2022/04/08 00:29:39;;;;;;;4.57;1.83;;;6.30;99.90;;;;;;5031676;28;20021;-90
2022/04/08 00:32:05;;;;;;;5.28;1.92;;;6.30;99.90;;;;;;5049049;28;20400;-89
2022/04/08 00:34:31;;;;;;;7.55;1.60;;;6.20;99.90;;;;;;5043718;28;20029;-90
2022/04/08 00:36:56;;;;;;;7.13;1.85;;;6.20;99.90;;;;;;5029008;28;20029;-90
2022/04/08 00:39:22;;;;;;;4.28;1.90;;;6.20;99.90;;;;;;5055242;28;20041;-89
2022/04/08 00:41:49;;;;;;;4.70;1.88;;;6.20;99.90;;;;;;5055857;28;20117;-89
2022/04/08 00:44:15;;;;;;;9.38;2.78;;;6.20;99.90;;;;;;5042185;28;20037;-89
2022/04/08 00:46:43;;;;;;;12.02;3.17;;;6.20;99.90;;;;;;5013719;28;20454;-90
2022/04/08 00:49:09;;;;;;;8.38;2.70;;;6.20;99.90;;;;;;5030138;28;20082;-89
2022/04/08 00:51:35;;;;;;;4.10;1.77;;;6.10;99.90;;;;;;5043228;28;20025;-90
2022/04/08 00:54:04;;;;;;;8.40;2.20;;;6.10;99.90;;;;;;5038270;28;20028;-89
2022/04/08 00:56:31;;;;;;;13.40;3.97;;;6.10;99.90;;;;;;5032363;28;20029;-90
2022/04/08 00:58:57;;;;;;;10.13;1.65;;;6.10;99.90;;;;;;5038317;28;20381;-89
2022/04/08 01:01:24;;;;;;;8.10;1.13;;;6.10;99.90;;;;;;5013810;28;20365;-89
2022/04/08 01:03:52;;;;;;;4.80;1.35;;;6.10;99.90;;;;;;5038068;28;20029;-91
2022/04/08 01:06:22;;;;;;;10.40;2.20;;;6.10;99.90;;;;;;5033054;28;20060;-90
2022/04/08 01:08:49;;;;;;;10.63;2.05;;;6.10;99.90;;;;;;5030294;28;20084;-90
2022/04/08 01:11:16;;;;;;;5.85;2.42;;;6.10;99.90;;;;;;5030650;28;20017;-91
2022/04/08 01:13:42;;;;;;;8.27;1.90;;;6.10;99.90;;;;;;5041995;28;20033;-89
2022/04/08 01:16:08;;;;;;;11.18;2.10;;;6.10;99.90;;;;;;5035640;28;20037;-91
2022/04/08 01:18:35;;;;;;;3.08;2.13;;;6.10;99.90;;;;;;5029565;28;20095;-89
2022/04/08 01:21:07;;;;;;;8.82;2.05;;;6.00;99.90;;;;;;5034504;28;20481;-89
2022/04/08 01:23:34;;;;;;;5.63;2.63;;;6.00;99.90;;;;;;5039782;28;20131;-89
2022/04/08 01:26:06;;;;;;;5.60;2.92;;;6.00;99.90;;;;;;5016819;28;20022;-90
2022/04/08 01:28:32;;;;;;;8.27;2.45;;;6.00;99.90;;;;;;5039892;28;20076;-90
2022/04/08 01:30:59;;;;;;;4.22;1.80;;;6.10;99.90;;;;;;5048069;28;20035;-90
2022/04/08 01:33:25;;;;;;;9.07;2.50;;;6.10;99.90;;;;;;5029807;28;20029;-91
2022/04/08 01:35:51;;;;;;;5.03;2.35;;;6.10;99.90;;;;;;5029644;28;20041;-90
2022/04/08 01:38:16;;;;;;;6.90;1.95;;;6.20;99.90;;;;;;5033919;28;20499;-89
2022/04/08 01:40:42;;;;;;;3.97;1.70;;;6.10;99.90;;;;;;5032576;28;20069;-89
2022/04/08 01:43:08;;;;;;;7.13;1.75;;;6.10;99.90;;;;;;5041968;28;20057;-90
2022/04/08 01:45:33;;;;;;;4.10;1.88;;;6.10;99.90;;;;;;5029813;28;20102;-91
2022/04/08 01:47:59;;;;;;;5.80;1.83;;;6.10;99.90;;;;;;5040434;28;20136;-90
2022/04/08 01:50:25;;;;;;;14.43;2.33;;;6.00;99.90;;;;;;5034942;28;20477;-90
2022/04/08 01:52:51;;;;;;;4.40;1.30;;;6.00;99.90;;;;;;5043691;28;20104;-89
2022/04/08 01:55:18;;;;;;;4.72;1.30;;;6.00;99.90;;;;;;5053809;28;20040;-89
2022/04/08 01:57:44;;;;;;;5.65;1.48;;;6.00;99.90;;;;;;5033056;28;20395;-90
2022/04/08 02:00:11;;;;;;;5.18;1.30;;;5.90;99.90;;;;;;5020213;28;20041;-89
2022/04/08 02:02:37;;;;;;;6.13;1.55;;;5.80;99.90;;;;;;5041770;28;20040;-89
2022/04/08 02:05:03;;;;;;;5.28;1.98;;;5.70;99.90;;;;;;5048165;28;20045;-89
2022/04/08 02:07:28;;;;;;;3.95;1.55;;;5.70;99.90;;;;;;5034340;28;20386;-89
2022/04/08 02:09:55;;;;;;;8.40;1.75;;;5.70;99.90;;;;;;5016484;28;20034;-89
2022/04/08 02:12:20;;;;;;;4.78;1.58;;;5.70;99.90;;;;;;5048241;28;20013;-88
2022/04/08 02:14:46;;;;;;;4.82;1.65;;;5.70;99.90;;;;;;5054531;28;20098;-89
2022/04/08 02:17:12;;;;;;;9.18;2.50;;;5.60;99.90;;;;;;5048171;28;20029;-90
2022/04/08 02:19:38;;;;;;;10.27;1.73;;;5.60;99.90;;;;;;5045378;28;20025;-89
2022/04/08 02:22:05;;;;;;;4.15;2.28;;;5.60;99.90;;;;;;5037831;28;20052;-88
2022/04/08 02:24:32;;;;;;;10.70;2.35;;;5.60;99.90;;;;;;5044520;28;20017;-89
2022/04/08 02:26:58;;;;;;;3.40;0.95;;;5.60;99.90;;;;;;5041805;28;20037;-90
2022/04/08 02:29:24;;;;;;;5.25;1.63;;;5.50;99.90;;;;;;5036563;28;20044;-89
2022/04/08 02:31:50;;;;;;;5.00;1.83;;;5.50;99.90;;;;;;5045584;28;20047;-89
2022/04/08 02:34:16;;;;;;;10.65;1.88;;;5.40;99.90;;;;;;5053853;28;20110;-90
2022/04/08 02:36:41;;;;;;;8.60;2.03;;;5.50;99.90;;;;;;5054663;28;20135;-89
2022/04/08 02:39:08;;;;;;;7.30;1.90;;;5.50;99.90;;;;;;5041494;28;20037;-89
2022/04/08 02:41:33;;;;;;;10.00;1.65;;;5.50;99.90;;;;;;5035343;28;20045;-87
2022/04/08 02:43:59;;;;;;;7.00;1.65;;;5.50;99.90;;;;;;5040813;28;20044;-88
2022/04/08 02:46:25;;;;;;;5.30;1.40;;;5.50;99.90;;;;;;5035961;28;20046;-89
2022/04/08 02:48:50;;;;;;;3.17;1.20;;;5.50;99.90;;;;;;5037524;28;20500;-89
2022/04/08 02:51:16;;;;;;;4.63;1.20;;;5.50;99.90;;;;;;5043956;28;20055;-89
2022/04/08 02:53:42;;;;;;;10.30;1.92;;;5.50;99.90;;;;;;5042011;28;20036;-88
2022/04/08 02:56:08;;;;;;;7.10;1.88;;;5.50;99.90;;;;;;5043014;28;20037;-88
2022/04/08 02:58:35;;;;;;;6.53;2.00;;;5.50;99.90;;;;;;5051029;28;20052;-88
2022/04/08 03:01:01;;;;;;;5.95;1.88;;;5.50;99.90;;;;;;5045888;28;20148;-87
2022/04/08 03:03:27;;;;;;;12.43;2.17;;;5.40;99.90;;;;;;5040829;28;20112;-88
2022/04/08 03:05:53;;;;;;;7.03;2.40;;;5.50;99.90;;;;;;5042045;28;20543;-88
2022/04/08 03:08:19;;;;;;;9.95;1.63;;;5.50;99.90;;;;;;5036172;28;20353;-88
2022/04/08 03:10:45;;;;;;;6.43;1.90;;;5.50;99.90;;;;;;5042932;28;20117;-88
2022/04/08 03:13:11;;;;;;;4.80;2.58;;;5.40;99.90;;;;;;5037977;28;20112;-88
2022/04/08 03:15:38;;;;;;;7.40;1.92;;;5.40;99.90;;;;;;5042534;28;20361;-88
2022/04/08 03:18:05;;;;;;;3.33;1.42;;;5.40;99.90;;;;;;5044639;28;20026;-88
2022/04/08 03:20:30;;;;;;;6.30;1.85;;;5.50;99.90;;;;;;5051036;28;20044;-88
2022/04/08 03:22:56;;;;;;;9.82;1.80;;;5.50;99.90;;;;;;5035609;28;20036;-88
2022/04/08 03:25:21;;;;;;;5.95;1.42;;;5.40;99.90;;;;;;5046219;28;20481;-88
2022/04/08 03:27:47;;;;;;;4.57;1.67;;;5.50;99.90;;;;;;5039702;28;20072;-87
2022/04/08 03:30:13;;;;;;;7.85;2.67;;;5.40;99.90;;;;;;5046523;28;20522;-88
2022/04/08 03:32:39;;;;;;;4.68;1.50;;;5.50;99.90;;;;;;5040846;28;20476;-88
2022/04/08 03:35:05;;;;;;;10.40;1.58;;;5.50;99.90;;;;;;5040013;28;20052;-87
2022/04/08 03:37:31;;;;;;;7.85;1.67;;;5.50;99.90;;;;;;5043193;28;20333;-88
2022/04/08 03:39:56;;;;;;;8.18;1.80;;;5.50;99.90;;;;;;5038622;28;20536;-88
2022/04/08 03:42:23;;;;;;;5.53;1.70;;;5.50;99.90;;;;;;5040290;28;20033;-88
2022/04/08 03:44:51;;;;;;;6.30;1.80;;;5.60;99.90;;;;;;5046485;28;20033;-89
2022/04/08 03:47:17;;;;;;;4.10;1.73;;;5.60;99.90;;;;;;5038365;28;20037;-89
2022/04/08 03:49:43;;;;;;;7.63;2.38;;;5.60;99.90;;;;;;5047528;28;20025;-87
2022/04/08 03:52:09;;;;;;;16.90;2.65;;;5.70;99.90;;;;;;5042908;28;20044;-87
2022/04/08 03:54:38;;;;;;;4.13;1.80;;;5.60;99.90;;;;;;5042153;28;20033;-87
2022/04/08 03:57:05;;;;;;;5.07;1.98;;;5.70;99.90;;;;;;5033449;28;20033;-88
2022/04/08 03:59:31;;;;;;;4.35;1.70;;;5.60;99.90;;;;;;5023240;28;20111;-88
2022/04/08 04:01:57;;;;;;;4.50;2.03;;;5.60;99.90;;;;;;5043232;28;20037;-88
2022/04/08 04:04:23;;;;;;;15.55;2.13;;;5.60;99.90;;;;;;5038494;28;20056;-88
2022/04/08 04:06:49;;;;;;;6.53;1.98;;;5.60;99.90;;;;;;5045596;28;20056;-88
2022/04/08 04:09:14;;;;;;;7.28;2.45;;;5.60;99.90;;;;;;5035385;28;20021;-88
2022/04/08 04:11:40;;;;;;;8.48;2.53;;;5.70;99.90;;;;;;5033752;28;20026;-88
2022/04/08 04:14:09;;;;;;;4.00;1.80;;;5.60;99.90;;;;;;5040242;28;20029;-89
2022/04/08 04:16:34;;;;;;;5.85;2.78;;;5.70;99.90;;;;;;5048304;28;20037;-89
2022/04/08 04:19:01;;;;;;;10.00;3.10;;;5.70;99.90;;;;;;5039525;28;20049;-89
2022/04/08 04:21:27;;;;;;;7.93;2.58;;;5.70;99.90;;;;;;5047739;28;20049;-89
2022/04/08 04:23:52;;;;;;;7.50;2.00;;;5.70;99.90;;;;;;5043855;28;20499;-88
2022/04/08 04:26:18;;;;;;;6.97;1.85;;;5.70;99.90;;;;;;5040326;28;20104;-88
2022/04/08 04:28:43;;;;;;;11.30;2.67;;;5.70;99.90;;;;;;5020697;28;20040;-88
2022/04/08 04:31:09;;;;;;;5.88;2.30;;;5.70;99.90;;;;;;5037239;28;20111;-88
2022/04/08 04:33:35;;;;;;;9.07;2.10;;;5.60;99.90;;;;;;5041929;28;20033;-86
2022/04/08 04:36:00;;;;;;;5.07;2.72;;;5.60;99.90;;;;;;5022434;28;20037;-87
2022/04/08 04:38:26;;;;;;;9.80;3.15;;;5.60;99.90;;;;;;5042198;28;20025;-88
2022/04/08 04:40:52;;;;;;;7.03;2.10;;;5.60;99.90;;;;;;5045819;28;20048;-89
2022/04/08 04:43:18;;;;;;;5.00;1.90;;;5.60;99.90;;;;;;5033333;28;20050;-87
2022/04/08 04:45:43;;;;;;;3.03;1.80;;;5.60;99.90;;;;;;5039482;28;20039;-89
2022/04/08 04:48:12;;;;;;;3.47;1.92;;;5.50;99.90;;;;;;5032095;28;20045;-88
2022/04/08 04:50:39;;;;;;;8.38;1.85;;;5.50;99.90;;;;;;5050682;28;20390;-86
2022/04/08 04:53:05;;;;;;;6.28;2.00;;;5.50;99.90;;;;;;5025370;28;20030;-87
2022/04/08 04:55:31;;;;;;;11.20;3.10;;;5.50;99.90;;;;;;5019834;28;20112;-87
2022/04/08 04:57:56;;;;;;;9.93;2.20;;;5.50;99.90;;;;;;5030005;28;20515;-87
2022/04/08 05:00:22;;;;;;;6.18;2.80;;;5.50;99.90;;;;;;5029945;28;20497;-87
2022/04/08 05:02:49;;;;;;;8.68;2.83;;;5.50;99.90;;;;;;5033589;28;20036;-85
2022/04/08 05:05:14;;;;;;;13.20;3.50;;;5.50;99.90;;;;;;5036939;28;20040;-86
2022/04/08 05:07:40;;;;;;;12.43;2.15;;;5.50;99.90;;;;;;5044044;28;20029;-87
2022/04/08 05:10:07;;;;;;;8.40;2.10;;;5.50;99.90;;;;;;5049004;28;20039;-87
2022/04/08 05:12:36;;;;;;;4.93;1.73;;;5.50;99.90;;;;;;5022758;28;20721;-86
2022/04/08 05:15:05;;;;;;;6.85;2.15;;;5.50;99.90;;;;;;5013409;28;20090;-87
2022/04/08 05:17:30;;;;;;;3.88;1.92;;;5.50;99.90;;;;;;5009434;28;20057;-87
2022/04/08 05:19:56;;;;;;;10.60;2.15;;;5.50;99.90;;;;;;5017831;28;20733;-86
2022/04/08 05:22:22;;;;;;;4.68;1.80;;;5.60;99.90;;;;;;5052796;28;20030;-89
2022/04/08 05:24:47;;;;;;;7.82;1.88;;;5.50;99.90;;;;;;5022283;28;20025;-89
2022/04/08 05:27:13;;;;;;;4.78;1.60;;;5.50;99.90;;;;;;5030224;28;20041;-89
2022/04/08 05:29:39;;;;;;;5.10;1.80;;;5.40;99.90;;;;;;5020995;28;20032;-88
2022/04/08 05:32:05;;;;;;;5.78;1.60;;;5.40;99.90;;;;;;5032957;28;20037;-89
2022/04/08 05:34:31;;;;;;;9.52;2.15;;;5.40;99.90;;;;;;5029514;28;20084;-87
2022/04/08 05:36:57;;;;;;;8.73;1.85;;;5.40;99.90;;;;;;5030832;28;20017;-88
2022/04/08 05:39:22;;;;;;;8.20;2.35;;;5.40;99.90;;;;;;5031794;28;20033;-92
2022/04/08 05:41:48;;;;;;;4.68;1.85;;;5.40;99.90;;;;;;5030677;28;20128;-88
2022/04/08 05:44:14;;;;;;;7.25;2.13;;;5.40;99.90;;;;;;5025023;28;20400;-87
2022/04/08 05:46:39;;;;;;;12.75;1.80;;;5.40;99.90;;;;;;5042896;28;20131;-86
2022/04/08 05:49:05;;;;;;;5.78;1.92;;;5.40;99.90;;;;;;5032159;28;20032;-88
2022/04/08 05:51:31;;;;;;;11.70;2.45;;;5.50;99.90;;;;;;5028803;28;20034;-87
2022/04/08 05:53:56;;;;;;;6.43;1.90;;;5.60;99.90;;;;;;5039558;28;20032;-87
2022/04/08 05:56:22;;;;;;;7.90;2.10;;;5.60;99.90;;;;;;5034257;28;20044;-86
2022/04/08 05:58:48;;;;;;;6.13;2.03;;;5.70;99.90;;;;;;5027033;28;20117;-86
2022/04/08 06:01:13;;;;;;;9.75;2.72;;;5.70;99.90;;;;;;5017744;28;20374;-86
2022/04/08 06:03:39;;;;;;;8.80;2.17;;;5.70;99.90;;;;;;5040138;28;20030;-87
2022/04/08 06:06:04;;;;;;;7.75;2.15;;;5.70;99.90;;;;;;5053873;28;20040;-85
2022/04/08 06:08:31;;;;;;;4.75;2.17;;;5.70;99.90;;;;;;5060253;28;20027;-86
2022/04/08 06:10:57;;;;;;;8.45;3.00;;;5.70;99.90;;;;;;5046636;28;20104;-86
2022/04/08 06:13:26;;;;;;;3.80;2.40;;;5.70;99.90;;;;;;5025427;28;20100;-86
2022/04/08 06:15:52;;;;;;;5.60;2.85;;;5.70;99.90;;;;;;5026360;28;20021;-86
2022/04/08 06:18:19;;;;;;;6.78;2.28;;;5.80;99.90;;;;;;5031252;28;20033;-86
2022/04/08 06:20:46;;;;;;;10.10;2.97;;;5.80;99.90;;;;;;5042012;28;20034;-86
2022/04/08 06:23:11;;;;;;;5.47;2.63;;;6.10;99.90;;;;;;5034207;28;20228;-88
2022/04/08 06:25:40;;;;;;;6.32;2.65;;;6.30;99.90;;;;;;5040869;28;20025;-86
2022/04/08 06:28:07;;;;;;;7.35;2.17;;;6.40;99.90;;;;;;5029020;28;20026;-86
2022/04/08 06:30:37;;;;;;;5.70;2.28;;;6.50;99.90;;;;;;5008994;28;20022;-86
2022/04/08 06:33:04;;;;;;;5.45;2.40;;;6.40;99.90;;;;;;5038214;28;20120;-87
2022/04/08 06:35:33;;;;;;;4.07;2.25;;;6.40;99.90;;;;;;5030692;28;20064;-86
2022/04/08 06:38:04;;;;;;;8.82;2.85;;;6.50;99.90;;;;;;5027610;28;20097;-86
2022/04/08 06:40:32;;;;;;;;;;;6.40;99.90;;;;;;5011743;28;20447;-85
2022/04/08 06:43:00;;;;;;;5.13;1.90;;;6.30;99.90;;;;;;5039589;28;19909;-87
2022/04/08 06:45:26;;;;;;;4.63;1.77;;;6.40;99.90;;;;;;5049001;28;20042;-86
2022/04/08 06:47:53;;;;;;;5.10;1.60;;;6.30;99.90;;;;;;5038579;28;20416;-85
2022/04/08 06:50:19;;;;;;;4.25;2.28;;;6.40;99.90;;;;;;5038292;28;20054;-87
2022/04/08 06:52:46;;;;;;;4.57;1.85;;;6.60;99.90;;;;;;5041594;28;20384;-86
2022/04/08 06:55:12;;;;;;;5.00;1.50;;;6.50;99.90;;;;;;5032760;28;20108;-87
2022/04/08 06:57:38;;;;;;;4.88;1.60;;;6.60;99.90;;;;;;5039373;28;20017;-86
2022/04/08 07:00:06;;;;;;;3.80;1.52;;;6.50;99.90;;;;;;5036533;28;20176;-86
2022/04/08 07:02:32;;;;;;;8.23;1.83;;;6.60;99.90;;;;;;5029340;28;20034;-86
2022/04/08 07:04:58;;;;;;;4.80;1.85;;;6.60;99.90;;;;;;5044505;28;20028;-86
2022/04/08 07:07:34;;;;;;;5.88;2.10;;;6.60;99.90;;;;;;5039980;28;20774;-87
2022/04/08 07:10:00;;;;;;;6.60;1.58;;;6.50;99.90;;;;;;5028034;28;20025;-87
2022/04/08 07:12:27;;;;;;;4.45;1.58;;;6.80;99.90;;;;;;5045897;28;20491;-86
2022/04/08 07:14:53;;;;;;;4.15;1.83;;;6.80;99.90;;;;;;5046454;28;20025;-86
2022/04/08 07:17:29;;;;;;;6.43;1.98;;;6.80;99.90;;;;;;5035382;28;20026;-86
2022/04/08 07:19:55;;;;;;;2.95;1.65;;;7.00;99.90;;;;;;5027228;28;20033;-87
2022/04/08 07:22:22;;;;;;;7.05;2.42;;;7.10;99.90;;;;;;5026077;28;20014;-87
2022/04/08 07:24:48;;;;;;;3.72;1.90;;;6.90;99.90;;;;;;5031766;28;20052;-86
2022/04/08 07:27:13;;;;;;;3.28;1.80;;;6.80;99.90;;;;;;5041702;28;20068;-87
2022/04/08 07:29:39;;;;;;;4.47;1.92;;;6.70;99.90;;;;;;5051520;28;20322;-85
2022/04/08 07:32:05;;;;;;;6.32;2.45;;;6.90;99.90;;;;;;5029979;28;20076;-86
2022/04/08 07:34:30;;;;;;;4.93;2.40;;;6.80;99.90;;;;;;5051675;28;20569;-86
2022/04/08 07:36:56;;;;;;;8.70;2.88;;;7.00;99.90;;;;;;5032266;28;20125;-86
2022/04/08 07:39:22;;;;;;;4.63;2.60;;;7.00;99.90;;;;;;5037668;28;20124;-86
2022/04/08 07:41:47;;;;;;;4.25;2.35;;;7.10;99.90;;;;;;5041143;28;20132;-87
2022/04/08 07:44:13;;;;;;;7.03;2.83;;;7.10;99.90;;;;;;5018518;28;20030;-86
2022/04/08 07:46:38;;;;;;;2.80;2.15;;;7.30;99.90;;;;;;5027556;28;20065;-87
2022/04/08 07:49:04;;;;;;;6.65;2.53;;;7.30;99.90;;;;;;5036478;28;20544;-87
2022/04/08 07:51:30;;;;;;;5.22;2.22;;;7.40;99.90;;;;;;5035376;28;20064;-86
2022/04/08 07:53:55;;;;;;;6.93;2.53;;;7.40;99.90;;;;;;5033073;28;20492;-87
2022/04/08 07:56:21;;;;;;;13.05;3.28;;;7.60;99.90;;;;;;5034638;28;20750;-87
2022/04/08 07:58:48;;;;;;;12.23;6.18;;;7.60;99.90;;;;;;5013009;28;20042;-87
2022/04/08 08:01:14;;;;;;;8.52;3.15;;;7.40;99.90;;;;;;5034330;28;20053;-87
2022/04/08 08:03:42;;;;;;;5.13;2.75;;;7.20;99.90;;;;;;5022133;28;20031;-87
2022/04/08 08:06:08;;;;;;;7.20;3.22;;;7.20;99.90;;;;;;5017477;28;20060;-85
2022/04/08 08:08:33;;;;;;;5.43;2.75;;;7.10;99.90;;;;;;5015139;28;20045;-85
2022/04/08 08:10:59;;;;;;;7.13;2.80;;;7.20;99.90;;;;;;5030344;28;20431;-87
2022/04/08 08:13:24;;;;;;;5.22;3.03;;;7.30;99.90;;;;;;5019132;28;20477;-87
2022/04/08 08:15:50;;;;;;;5.90;2.35;;;7.30;99.90;;;;;;5011831;28;20079;-86
2022/04/08 08:18:17;;;;;;;4.57;2.40;;;7.40;99.90;;;;;;5037646;28;20365;-86
2022/04/08 08:20:43;;;;;;;4.72;3.00;;;7.50;99.90;;;;;;5030878;28;20021;-87
2022/04/08 08:23:09;;;;;;;5.10;2.33;;;7.60;99.90;;;;;;5032427;28;20039;-87
2022/04/08 08:25:34;;;;;;;6.20;3.15;;;7.40;99.90;;;;;;5045481;28;20040;-87
2022/04/08 08:28:02;;;;;;;4.80;3.00;;;7.30;99.90;;;;;;5040991;28;20496;-87
2022/04/08 08:30:29;;;;;;;5.90;2.22;;;7.40;99.90;;;;;;5037482;28;20028;-86
2022/04/08 08:32:56;;;;;;;4.25;2.50;;;7.20;99.90;;;;;;5051391;28;20025;-87
2022/04/08 08:35:22;;;;;;;4.88;2.42;;;7.20;99.90;;;;;;5039107;28;20029;-85
2022/04/08 08:37:49;;;;;;;5.70;2.70;;;7.20;99.90;;;;;;5017771;28;20034;-85
2022/04/08 08:40:16;;;;;;;5.75;3.08;;;7.30;99.90;;;;;;5024251;28;20370;-85
2022/04/08 08:42:43;;;;;;;5.82;3.03;;;7.50;99.90;;;;;;5032008;28;20037;-83
2022/04/08 08:45:11;;;;;;;6.38;2.30;;;7.70;99.90;;;;;;5031799;28;20087;-86
2022/04/08 08:47:37;;;;;;;6.00;3.08;;;7.80;99.90;;;;;;5026549;28;20021;-86
2022/04/08 08:50:09;;;;;;;8.18;3.28;;;7.70;99.90;;;;;;5031184;28;20056;-86
2022/04/08 08:52:35;;;;;;;6.30;2.58;;;7.70;99.90;;;;;;5022483;28;20029;-86
2022/04/08 08:55:05;;;;;;;5.90;3.08;;;7.80;99.90;;;;;;5033450;28;20485;-87
2022/04/08 08:57:30;;;;;;;5.18;2.58;;;8.00;99.90;;;;;;5008446;28;20033;-87
2022/04/08 09:00:12;;;;;;;5.28;2.63;;;8.10;99.90;;;;;;5035459;28;20218;-87
2022/04/08 09:02:38;;;;;;;4.57;2.40;;;8.20;99.90;;;;;;5042919;28;20033;-87
2022/04/08 09:05:21;;;;;;;5.28;2.53;;;8.20;99.90;;;;;;5029873;28;20045;-86
2022/04/08 09:08:00;;;;;;;4.72;2.92;;;8.10;99.90;;;;;;5025053;28;20051;-87
2022/04/08 09:10:28;;;;;;;5.90;2.70;;;8.30;99.90;;;;;;5034611;28;20727;-87
2022/04/08 09:12:58;;;;;;;4.63;2.85;;;8.20;99.90;;;;;;5029078;28;20084;-86
2022/04/08 09:15:24;;;;;;;6.00;2.90;;;8.40;99.90;;;;;;5027172;28;20109;-86
2022/04/08 09:17:51;;;;;;;6.97;2.70;;;8.60;99.90;;;;;;5022745;28;20207;-87
2022/04/08 09:20:17;;;;;;;7.82;3.15;;;8.50;99.90;;;;;;5038555;28;20064;-87
2022/04/08 09:22:51;;;;;;;4.13;2.60;;;8.50;99.90;;;;;;5017161;28;20026;-87
2022/04/08 09:25:19;;;;;;;4.45;2.50;;;8.30;99.90;;;;;;5035144;28;20037;-85
2022/04/08 09:27:45;;;;;;;5.63;3.05;;;8.30;99.90;;;;;;5038822;28;20079;-87
2022/04/08 09:30:18;;;;;;;5.93;2.67;;;8.60;99.90;;;;;;5019724;28;20446;-87
2022/04/08 09:32:44;;;;;;;7.45;2.90;;;8.50;99.90;;;;;;5032025;28;20095;-86
2022/04/08 09:35:17;;;;;;;3.22;1.80;;;8.80;99.90;;;;;;5010856;28;20374;-86
2022/04/08 09:37:43;;;;;;;4.93;2.00;;;8.70;99.90;;;;;;5027095;28;20085;-87
2022/04/08 09:40:09;;;;;;;6.82;1.80;;;8.60;99.90;;;;;;5031566;28;20024;-87
2022/04/08 09:42:43;;;;;;;4.45;2.30;;;8.60;99.90;;;;;;5030616;28;20033;-87
2022/04/08 09:45:09;;;;;;;4.95;2.30;;;8.50;99.90;;;;;;5007672;28;20072;-87
2022/04/08 09:47:36;;;;;;;3.33;2.25;;;8.20;99.90;;;;;;5024518;28;20021;-87
2022/04/08 09:50:02;;;;;;;3.92;1.98;;;8.30;99.90;;;;;;5028959;28;20558;-87
2022/04/08 09:52:29;;;;;;;7.05;2.22;;;8.10;99.90;;;;;;5021899;28;20123;-87
2022/04/08 09:54:59;;;;;;;5.80;2.20;;;8.10;99.90;;;;;;5028640;28;20040;-87
2022/04/08 09:57:29;;;;;;;3.22;2.03;;;8.30;99.90;;;;;;5037952;28;20041;-87
2022/04/08 10:00:00;;;;;;;5.30;3.50;;;8.10;99.90;;;;;;5044322;28;20565;-88
2022/04/08 10:02:28;;;;;;;4.85;2.25;;;8.00;99.90;;;;;;5050428;28;20110;-87
2022/04/08 10:04:55;;;;;;;3.08;1.85;;;7.90;99.90;;;;;;5030539;28;20026;-87
2022/04/08 10:07:22;;;;;;;3.85;2.35;;;8.00;99.90;;;;;;5034307;28;20029;-86
2022/04/08 10:10:18;;;;;;;4.15;2.03;;;8.10;99.90;;;;;;5034534;28;20021;-87
2022/04/08 10:13:09;;;;;;;3.63;2.22;;;8.00;99.90;;;;;;5025822;28;20030;-86
2022/04/08 10:15:39;;;;;;;5.72;2.47;;;8.00;99.90;;;;;;5046573;28;20472;-87
2022/04/08 10:18:05;;;;;;;4.43;2.97;;;8.20;99.90;;;;;;5025718;28;20365;-87
2022/04/08 10:20:33;;;;;;;3.03;2.13;;;8.20;99.90;;;;;;5021120;28;20049;-86
2022/04/08 10:23:09;;;;;;;4.20;2.30;;;8.20;99.90;;;;;;5035685;28;20029;-87
2022/04/08 10:25:43;;;;;;;4.60;2.63;;;8.10;99.90;;;;;;5038658;28;20033;-87
2022/04/08 10:28:11;;;;;;;5.03;3.13;;;8.00;99.90;;;;;;5033886;28;20531;-86
2022/04/08 10:30:48;;;;;;;4.32;2.22;;;8.00;99.90;;;;;;5044821;28;20372;-87
2022/04/08 10:33:23;;;;;;;5.13;2.47;;;8.00;99.90;;;;;;5046895;28;20018;-87
2022/04/08 10:36:00;;;;;;;3.90;2.33;;;8.10;99.90;;;;;;5035238;28;20129;-87
2022/04/08 10:38:36;;;;;;;3.85;2.50;;;8.10;99.90;;;;;;5041892;28;20116;-87
2022/04/08 10:41:01;;;;;;;6.25;2.92;;;8.00;99.90;;;;;;5019436;28;20045;-86
2022/04/08 10:43:27;;;;;;;6.38;3.03;;;8.30;99.90;;;;;;5034068;28;20064;-86
2022/04/08 10:45:56;;;;;;;4.13;2.40;;;8.40;99.90;;;;;;5034227;28;20041;-87
2022/04/08 10:48:23;;;;;;;4.57;2.35;;;8.60;99.90;;;;;;5020365;28;20112;-87
2022/04/08 10:50:50;;;;;;;4.40;2.80;;;8.60;99.90;;;;;;5014448;28;20022;-87
2022/04/08 10:53:24;;;;;;;4.55;2.90;;;8.50;99.90;;;;;;5021133;28;20018;-87
2022/04/08 10:55:54;;;;;;;9.52;3.08;;;8.50;99.90;;;;;;5045866;28;20102;-87
2022/04/08 10:58:35;;;;;;;4.47;2.47;;;8.50;99.90;;;;;;5042385;28;20024;-87
2022/04/08 11:01:13;;;;;;;3.75;2.40;;;8.40;99.90;;;;;;5021973;28;20079;-87
2022/04/08 11:03:44;;;;;;;4.13;2.40;;;8.50;99.90;;;;;;5033270;28;20025;-86
2022/04/08 11:06:10;;;;;;;4.43;2.25;;;8.60;99.90;;;;;;4996357;28;20374;-87
2022/04/08 11:08:36;;;;;;;3.95;2.80;;;8.70;99.90;;;;;;5032273;28;20148;-86
2022/04/08 11:11:01;;;;;;;4.75;2.92;;;8.70;99.90;;;;;;5034215;28;20033;-87
2022/04/08 11:13:27;;;;;;;6.97;2.95;;;8.80;99.90;;;;;;5038835;28;20061;-87
2022/04/08 11:15:53;;;;;;;4.15;2.10;;;8.90;99.90;;;;;;5036972;28;20038;-86
2022/04/08 11:18:19;;;;;;;5.60;2.05;;;9.10;99.90;;;;;;5038321;28;20038;-87
2022/04/08 11:20:49;;;;;;;5.03;2.28;;;9.10;99.90;;;;;;5038960;28;20056;-85
2022/04/08 11:23:25;;;;;;;2.53;2.03;;;9.10;99.90;;;;;;5044365;28;20029;-86
2022/04/08 11:25:51;;;;;;;4.97;2.10;;;9.20;99.90;;;;;;5055915;28;20026;-86
2022/04/08 11:28:17;;;;;;;3.47;1.88;;;9.30;99.90;;;;;;5045400;28;20631;-87
2022/04/08 11:30:44;;;;;;;3.55;2.17;;;9.30;99.90;;;;;;5032531;28;20057;-85
2022/04/08 11:33:18;;;;;;;2.80;2.10;;;9.40;99.90;;;;;;5029995;28;20092;-85
2022/04/08 11:35:45;;;;;;;4.57;2.00;;;9.70;99.90;;;;;;5039407;28;20436;-85
2022/04/08 11:38:18;;;;;;;2.60;1.80;;;9.70;99.90;;;;;;5019388;28;20060;-86
2022/04/08 11:40:45;;;;;;;2.85;1.73;;;9.70;99.90;;;;;;5023368;28;20049;-86
2022/04/08 11:43:18;;;;;;;2.03;1.70;;;9.80;99.90;;;;;;5035634;28;20049;-86
2022/04/08 11:45:45;;;;;;;3.17;1.80;;;9.80;99.90;;;;;;5020613;28;20428;-86
2022/04/08 11:48:13;;;;;;;3.80;1.90;;;9.80;99.90;;;;;;5026672;28;20643;-85
2022/04/08 11:50:40;;;;;;;5.10;1.95;;;9.70;99.90;;;;;;5028863;28;20120;-86
2022/04/08 11:53:22;;;;;;;1.90;1.20;;;9.90;99.90;;;;;;5029408;28;20475;-85
2022/04/08 11:55:56;;;;;;;2.67;1.33;;;9.80;99.90;;;;;;5038424;28;20053;-86
2022/04/08 11:58:22;;;;;;;1.95;1.50;;;9.80;99.90;;;;;;5019482;28;20034;-86
2022/04/08 12:00:49;;;;;;;1.70;1.42;;;9.90;99.90;;;;;;5012300;28;20087;-85
2022/04/08 12:03:23;;;;;;;1.48;1.20;;;9.90;99.90;;;;;;5014410;28;20495;-87
2022/04/08 12:05:50;;;;;;;1.90;1.70;;;10.00;99.90;;;;;;5025528;28;20030;-85
2022/04/08 12:08:17;;;;;;;3.42;1.92;;;10.20;99.90;;;;;;5028908;28;20038;-85
2022/04/08 12:10:43;;;;;;;2.03;1.40;;;10.10;99.90;;;;;;5030241;28;20551;-85
2022/04/08 12:13:18;;;;;;;1.52;1.02;;;10.00;99.90;;;;;;5016164;28;20154;-86
2022/04/08 12:15:44;;;;;;;1.83;1.20;;;10.00;99.90;;;;;;5036726;28;20480;-85
2022/04/08 12:18:11;;;;;;;7.22;2.03;;;10.20;99.90;;;;;;5033845;28;20033;-86
2022/04/08 12:20:39;;;;;;;1.52;0.90;;;10.20;99.90;;;;;;5029597;28;20396;-85
2022/04/08 12:23:07;;;;;;;1.35;1.00;;;10.20;99.90;;;;;;5047234;28;20018;-86
2022/04/08 12:25:36;;;;;;;2.63;1.15;;;10.20;99.90;;;;;;5035770;28;20048;-86
2022/04/08 12:28:01;;;;;;;3.55;1.00;;;10.20;99.90;;;;;;5035886;28;20047;-87
2022/04/08 12:30:33;;;;;;;1.60;1.00;;;10.30;99.90;;;;;;5032593;28;20033;-85
2022/04/08 12:32:58;;;;;;;1.50;1.05;;;10.40;99.90;;;;;;5036930;28;20049;-87
2022/04/08 12:35:24;;;;;;;1.30;0.90;;;10.40;99.90;;;;;;5048798;28;20059;-89
2022/04/08 12:37:50;;;;;;;1.55;0.90;;;10.40;99.90;;;;;;5031675;28;20030;-87
2022/04/08 12:40:15;;;;;;;3.47;0.80;;;10.40;99.90;;;;;;5030142;28;20045;-89
2022/04/08 12:42:41;;;;;;;1.70;0.82;;;10.50;99.90;;;;;;5020648;28;20034;-88
2022/04/08 12:45:07;;;;;;;2.33;0.80;;;10.70;99.90;;;;;;5026234;28;20033;-86
2022/04/08 12:47:33;;;;;;;2.65;1.33;;;10.80;99.90;;;;;;5016082;28;20392;-88
2022/04/08 12:49:58;;;;;;;1.10;0.60;;;10.90;99.90;;;;;;5035712;28;20033;-90
2022/04/08 12:52:24;;;;;;;0.50;0.50;;;10.80;99.90;;;;;;5038606;28;20060;-86
2022/04/08 12:54:50;;;;;;;0.82;0.73;;;10.90;99.90;;;;;;5045347;28;20020;-91